sensor_id;sensor_type;location;lat;lon;timestamp;P1;durP1;ratioP1;P2;durP2;ratioP2
12151;SDS011;6139;51.274;7.128;2022-10-16T00:00:23;3.10;;;2.15;;
12151;SDS011;6139;51.274;7.128;2022-10-16T00:01:25;2.72;;;2.03;;
12151;SDS011;6139;51.274;7.128;2022-10-16T00:02:29;2.90;;;2.10;;
12151;SDS011;6139;51.274;7.128;2022-10-16T00:03:30;3.38;;;2.50;;
12151;SDS011;6139;51.274;7.128;2022-10-16T00:04:32;2.50;;;2.30;;
12151;SDS011;6139;51.274;7.128;2022-10-16T00:05:33;3.55;;;2.08;;
12151;SDS011;6139;51.274;7.128;2022-10-16T00:06:40;2.78;;;2.20;;
12151;SDS011;6139;51.274;7.128;2022-10-16T00:07:41;2.63;;;2.17;;
12151;SDS011;6139;51.274;7.128;2022-10-16T00:08:43;4.57;;;2.60;;
12151;SDS011;6139;51.274;7.128;2022-10-16T00:09:45;2.95;;;1.98;;
12151;SDS011;6139;51.274;7.128;2022-10-16T00:10:47;4.60;;;2.38;;
12151;SDS011;6139;51.274;7.128;2022-10-16T00:11:48;4.55;;;2.05;;
12151;SDS011;6139;51.274;7.128;2022-10-16T00:12:51;2.72;;;2.13;;
12151;SDS011;6139;51.274;7.128;2022-10-16T00:13:54;2.30;;;2.10;;
12151;SDS011;6139;51.274;7.128;2022-10-16T00:14:57;4.07;;;2.20;;
12151;SDS011;6139;51.274;7.128;2022-10-16T00:15:58;2.40;;;2.20;;
12151;SDS011;6139;51.274;7.128;2022-10-16T00:17:01;3.40;;;2.45;;
12151;SDS011;6139;51.274;7.128;2022-10-16T00:18:03;4.63;;;2.47;;
12151;SDS011;6139;51.274;7.128;2022-10-16T00:19:06;5.25;;;2.47;;
12151;SDS011;6139;51.274;7.128;2022-10-16T00:20:07;3.80;;;2.10;;
12151;SDS011;6139;51.274;7.128;2022-10-16T00:21:29;3.63;;;2.40;;
12151;SDS011;6139;51.274;7.128;2022-10-16T00:22:50;2.63;;;2.25;;
12151;SDS011;6139;51.274;7.128;2022-10-16T00:23:52;3.10;;;2.42;;
12151;SDS011;6139;51.274;7.128;2022-10-16T00:24:54;3.80;;;2.45;;
12151;SDS011;6139;51.274;7.128;2022-10-16T00:25:56;3.05;;;2.35;;
12151;SDS011;6139;51.274;7.128;2022-10-16T00:26:58;2.72;;;2.40;;
12151;SDS011;6139;51.274;7.128;2022-10-16T00:28:01;5.47;;;2.47;;
12151;SDS011;6139;51.274;7.128;2022-10-16T00:29:03;3.42;;;2.47;;
12151;SDS011;6139;51.274;7.128;2022-10-16T00:30:06;4.20;;;2.45;;
12151;SDS011;6139;51.274;7.128;2022-10-16T00:31:09;4.00;;;2.67;;
12151;SDS011;6139;51.274;7.128;2022-10-16T00:32:12;3.90;;;2.55;;
12151;SDS011;6139;51.274;7.128;2022-10-16T00:33:13;5.60;;;2.40;;
12151;SDS011;6139;51.274;7.128;2022-10-16T00:34:15;5.82;;;2.72;;
12151;SDS011;6139;51.274;7.128;2022-10-16T00:35:16;3.30;;;2.58;;
12151;SDS011;6139;51.274;7.128;2022-10-16T00:36:19;3.13;;;2.40;;
12151;SDS011;6139;51.274;7.128;2022-10-16T00:37:22;4.45;;;2.97;;
12151;SDS011;6139;51.274;7.128;2022-10-16T00:38:24;5.25;;;2.60;;
12151;SDS011;6139;51.274;7.128;2022-10-16T00:39:25;4.32;;;2.22;;
12151;SDS011;6139;51.274;7.128;2022-10-16T00:40:27;3.65;;;2.40;;
12151;SDS011;6139;51.274;7.128;2022-10-16T00:41:28;3.75;;;2.47;;
12151;SDS011;6139;51.274;7.128;2022-10-16T00:42:33;4.55;;;2.40;;
12151;SDS011;6139;51.274;7.128;2022-10-16T00:43:36;2.67;;;2.30;;
12151;SDS011;6139;51.274;7.128;2022-10-16T00:44:45;3.17;;;2.60;;
12151;SDS011;6139;51.274;7.128;2022-10-16T00:45:48;3.95;;;2.67;;
12151;SDS011;6139;51.274;7.128;2022-10-16T00:46:50;4.32;;;2.42;;
12151;SDS011;6139;51.274;7.128;2022-10-16T00:47:52;2.80;;;2.50;;
12151;SDS011;6139;51.274;7.128;2022-10-16T00:48:57;2.80;;;2.40;;
12151;SDS011;6139;51.274;7.128;2022-10-16T00:50:02;3.42;;;2.70;;
12151;SDS011;6139;51.274;7.128;2022-10-16T00:51:08;2.67;;;2.47;;
12151;SDS011;6139;51.274;7.128;2022-10-16T00:52:09;3.42;;;2.60;;
12151;SDS011;6139;51.274;7.128;2022-10-16T00:53:12;5.15;;;2.55;;
12151;SDS011;6139;51.274;7.128;2022-10-16T00:54:15;4.43;;;2.75;;
12151;SDS011;6139;51.274;7.128;2022-10-16T00:55:22;4.07;;;2.60;;
12151;SDS011;6139;51.274;7.128;2022-10-16T00:56:23;3.05;;;2.80;;
12151;SDS011;6139;51.274;7.128;2022-10-16T00:57:25;4.78;;;2.47;;
12151;SDS011;6139;51.274;7.128;2022-10-16T00:58:27;3.08;;;2.55;;
12151;SDS011;6139;51.274;7.128;2022-10-16T00:59:30;2.92;;;2.40;;
12151;SDS011;6139;51.274;7.128;2022-10-16T01:00:33;5.00;;;2.60;;
12151;SDS011;6139;51.274;7.128;2022-10-16T01:01:36;3.40;;;2.53;;
12151;SDS011;6139;51.274;7.128;2022-10-16T01:02:37;3.45;;;2.60;;
12151;SDS011;6139;51.274;7.128;2022-10-16T01:03:39;4.72;;;2.40;;
12151;SDS011;6139;51.274;7.128;2022-10-16T01:04:41;3.50;;;2.72;;
12151;SDS011;6139;51.274;7.128;2022-10-16T01:05:46;2.90;;;2.38;;
12151;SDS011;6139;51.274;7.128;2022-10-16T01:07:10;2.60;;;2.13;;
12151;SDS011;6139;51.274;7.128;2022-10-16T01:08:17;2.90;;;2.70;;
12151;SDS011;6139;51.274;7.128;2022-10-16T01:09:23;3.20;;;2.35;;
12151;SDS011;6139;51.274;7.128;2022-10-16T01:10:33;5.35;;;2.78;;
12151;SDS011;6139;51.274;7.128;2022-10-16T01:11:38;2.78;;;2.50;;
12151;SDS011;6139;51.274;7.128;2022-10-16T01:12:51;7.53;;;3.00;;
12151;SDS011;6139;51.274;7.128;2022-10-16T01:13:59;4.60;;;2.83;;
12151;SDS011;6139;51.274;7.128;2022-10-16T01:15:08;3.03;;;2.42;;
12151;SDS011;6139;51.274;7.128;2022-10-16T01:16:15;2.85;;;2.42;;
12151;SDS011;6139;51.274;7.128;2022-10-16T01:17:26;2.75;;;2.47;;
12151;SDS011;6139;51.274;7.128;2022-10-16T01:18:34;3.33;;;2.50;;
12151;SDS011;6139;51.274;7.128;2022-10-16T01:19:56;4.15;;;2.55;;
12151;SDS011;6139;51.274;7.128;2022-10-16T01:21:06;4.00;;;2.70;;
12151;SDS011;6139;51.274;7.128;2022-10-16T01:22:11;3.22;;;2.45;;
12151;SDS011;6139;51.274;7.128;2022-10-16T01:23:28;4.80;;;2.88;;
12151;SDS011;6139;51.274;7.128;2022-10-16T01:24:40;4.75;;;2.50;;
12151;SDS011;6139;51.274;7.128;2022-10-16T01:25:50;4.10;;;2.70;;
12151;SDS011;6139;51.274;7.128;2022-10-16T01:27:11;4.03;;;2.38;;
12151;SDS011;6139;51.274;7.128;2022-10-16T01:28:16;2.60;;;2.40;;
12151;SDS011;6139;51.274;7.128;2022-10-16T01:29:20;2.80;;;2.60;;
12151;SDS011;6139;51.274;7.128;2022-10-16T01:30:27;2.47;;;2.25;;
12151;SDS011;6139;51.274;7.128;2022-10-16T01:31:33;5.97;;;2.85;;
12151;SDS011;6139;51.274;7.128;2022-10-16T01:32:38;3.53;;;2.47;;
12151;SDS011;6139;51.274;7.128;2022-10-16T01:33:43;2.75;;;2.40;;
12151;SDS011;6139;51.274;7.128;2022-10-16T01:34:48;3.63;;;2.60;;
12151;SDS011;6139;51.274;7.128;2022-10-16T01:35:52;2.50;;;2.10;;
12151;SDS011;6139;51.274;7.128;2022-10-16T01:37:00;2.92;;;2.42;;
12151;SDS011;6139;51.274;7.128;2022-10-16T01:38:06;2.65;;;2.42;;
12151;SDS011;6139;51.274;7.128;2022-10-16T01:39:11;4.07;;;2.50;;
12151;SDS011;6139;51.274;7.128;2022-10-16T01:40:14;4.30;;;2.60;;
12151;SDS011;6139;51.274;7.128;2022-10-16T01:41:21;2.78;;;2.58;;
12151;SDS011;6139;51.274;7.128;2022-10-16T01:42:29;2.95;;;2.63;;
12151;SDS011;6139;51.274;7.128;2022-10-16T01:43:35;3.92;;;2.45;;
12151;SDS011;6139;51.274;7.128;2022-10-16T01:44:39;3.15;;;2.60;;
12151;SDS011;6139;51.274;7.128;2022-10-16T01:45:44;6.65;;;2.60;;
12151;SDS011;6139;51.274;7.128;2022-10-16T01:46:46;3.22;;;2.40;;
12151;SDS011;6139;51.274;7.128;2022-10-16T01:47:52;3.15;;;2.40;;
12151;SDS011;6139;51.274;7.128;2022-10-16T01:48:54;3.28;;;2.30;;
12151;SDS011;6139;51.274;7.128;2022-10-16T01:49:57;3.35;;;2.15;;
12151;SDS011;6139;51.274;7.128;2022-10-16T01:51:01;2.75;;;2.40;;
12151;SDS011;6139;51.274;7.128;2022-10-16T01:52:08;3.83;;;2.22;;
12151;SDS011;6139;51.274;7.128;2022-10-16T01:53:12;3.22;;;2.25;;
12151;SDS011;6139;51.274;7.128;2022-10-16T01:54:16;2.92;;;2.50;;
12151;SDS011;6139;51.274;7.128;2022-10-16T01:55:22;3.38;;;2.20;;
12151;SDS011;6139;51.274;7.128;2022-10-16T01:56:27;2.45;;;2.25;;
12151;SDS011;6139;51.274;7.128;2022-10-16T01:57:31;3.25;;;2.50;;
12151;SDS011;6139;51.274;7.128;2022-10-16T01:58:40;5.32;;;2.10;;
12151;SDS011;6139;51.274;7.128;2022-10-16T01:59:48;2.50;;;2.30;;
12151;SDS011;6139;51.274;7.128;2022-10-16T02:00:54;3.30;;;2.60;;
12151;SDS011;6139;51.274;7.128;2022-10-16T02:01:58;2.17;;;1.95;;
12151;SDS011;6139;51.274;7.128;2022-10-16T02:03:03;3.72;;;2.20;;
12151;SDS011;6139;51.274;7.128;2022-10-16T02:04:07;2.45;;;2.20;;
12151;SDS011;6139;51.274;7.128;2022-10-16T02:05:15;4.85;;;2.42;;
12151;SDS011;6139;51.274;7.128;2022-10-16T02:06:20;2.90;;;2.15;;
12151;SDS011;6139;51.274;7.128;2022-10-16T02:07:23;3.42;;;2.42;;
12151;SDS011;6139;51.274;7.128;2022-10-16T02:08:25;4.85;;;3.00;;
12151;SDS011;6139;51.274;7.128;2022-10-16T02:09:31;3.95;;;2.38;;
12151;SDS011;6139;51.274;7.128;2022-10-16T02:10:34;4.25;;;2.35;;
12151;SDS011;6139;51.274;7.128;2022-10-16T02:11:37;4.72;;;2.30;;
12151;SDS011;6139;51.274;7.128;2022-10-16T02:12:40;4.70;;;2.40;;
12151;SDS011;6139;51.274;7.128;2022-10-16T02:13:46;3.42;;;2.35;;
12151;SDS011;6139;51.274;7.128;2022-10-16T02:14:50;2.83;;;2.55;;
12151;SDS011;6139;51.274;7.128;2022-10-16T02:15:53;2.33;;;2.13;;
12151;SDS011;6139;51.274;7.128;2022-10-16T02:16:55;2.72;;;2.38;;
12151;SDS011;6139;51.274;7.128;2022-10-16T02:17:57;3.08;;;2.80;;
12151;SDS011;6139;51.274;7.128;2022-10-16T02:18:58;3.42;;;2.83;;
12151;SDS011;6139;51.274;7.128;2022-10-16T02:20:00;3.03;;;2.40;;
12151;SDS011;6139;51.274;7.128;2022-10-16T02:21:05;4.10;;;2.50;;
12151;SDS011;6139;51.274;7.128;2022-10-16T02:22:15;4.13;;;2.20;;
12151;SDS011;6139;51.274;7.128;2022-10-16T02:23:23;3.35;;;2.17;;
12151;SDS011;6139;51.274;7.128;2022-10-16T02:24:32;3.38;;;2.25;;
12151;SDS011;6139;51.274;7.128;2022-10-16T02:25:38;3.63;;;2.45;;
12151;SDS011;6139;51.274;7.128;2022-10-16T02:26:44;4.60;;;2.17;;
12151;SDS011;6139;51.274;7.128;2022-10-16T02:27:53;3.20;;;2.22;;
12151;SDS011;6139;51.274;7.128;2022-10-16T02:29:00;2.35;;;2.15;;
12151;SDS011;6139;51.274;7.128;2022-10-16T02:30:07;4.07;;;2.05;;
12151;SDS011;6139;51.274;7.128;2022-10-16T02:31:21;2.53;;;1.88;;
12151;SDS011;6139;51.274;7.128;2022-10-16T02:32:28;3.42;;;2.42;;
12151;SDS011;6139;51.274;7.128;2022-10-16T02:33:33;3.00;;;2.08;;
12151;SDS011;6139;51.274;7.128;2022-10-16T02:34:35;3.13;;;2.35;;
12151;SDS011;6139;51.274;7.128;2022-10-16T02:35:38;3.95;;;2.30;;
12151;SDS011;6139;51.274;7.128;2022-10-16T02:36:40;2.15;;;1.95;;
12151;SDS011;6139;51.274;7.128;2022-10-16T02:37:44;3.97;;;2.53;;
12151;SDS011;6139;51.274;7.128;2022-10-16T02:38:46;3.58;;;2.10;;
12151;SDS011;6139;51.274;7.128;2022-10-16T02:39:49;2.20;;;1.90;;
12151;SDS011;6139;51.274;7.128;2022-10-16T02:40:50;3.80;;;1.80;;
12151;SDS011;6139;51.274;7.128;2022-10-16T02:41:52;2.25;;;2.05;;
12151;SDS011;6139;51.274;7.128;2022-10-16T02:42:54;4.13;;;2.00;;
12151;SDS011;6139;51.274;7.128;2022-10-16T02:43:57;2.35;;;1.98;;
12151;SDS011;6139;51.274;7.128;2022-10-16T02:44:58;2.30;;;1.90;;
12151;SDS011;6139;51.274;7.128;2022-10-16T02:46:00;2.47;;;2.00;;
12151;SDS011;6139;51.274;7.128;2022-10-16T02:47:01;5.03;;;2.78;;
12151;SDS011;6139;51.274;7.128;2022-10-16T02:48:03;3.58;;;1.90;;
12151;SDS011;6139;51.274;7.128;2022-10-16T02:49:05;2.08;;;1.80;;
12151;SDS011;6139;51.274;7.128;2022-10-16T02:50:07;3.22;;;1.90;;
12151;SDS011;6139;51.274;7.128;2022-10-16T02:51:09;2.22;;;2.03;;
12151;SDS011;6139;51.274;7.128;2022-10-16T02:52:11;1.90;;;1.80;;
12151;SDS011;6139;51.274;7.128;2022-10-16T02:53:12;2.10;;;1.90;;
12151;SDS011;6139;51.274;7.128;2022-10-16T02:54:14;2.90;;;2.03;;
12151;SDS011;6139;51.274;7.128;2022-10-16T02:55:15;1.95;;;1.75;;
12151;SDS011;6139;51.274;7.128;2022-10-16T02:56:17;3.03;;;1.75;;
12151;SDS011;6139;51.274;7.128;2022-10-16T02:57:19;3.65;;;2.15;;
12151;SDS011;6139;51.274;7.128;2022-10-16T02:58:22;3.08;;;1.90;;
12151;SDS011;6139;51.274;7.128;2022-10-16T02:59:23;2.42;;;1.83;;
12151;SDS011;6139;51.274;7.128;2022-10-16T03:00:25;4.00;;;2.50;;
12151;SDS011;6139;51.274;7.128;2022-10-16T03:01:26;2.30;;;1.70;;
12151;SDS011;6139;51.274;7.128;2022-10-16T03:02:29;1.63;;;1.52;;
12151;SDS011;6139;51.274;7.128;2022-10-16T03:03:30;2.70;;;1.85;;
12151;SDS011;6139;51.274;7.128;2022-10-16T03:04:32;2.00;;;1.60;;
12151;SDS011;6139;51.274;7.128;2022-10-16T03:05:33;1.85;;;1.65;;
12151;SDS011;6139;51.274;7.128;2022-10-16T03:06:35;2.33;;;1.50;;
12151;SDS011;6139;51.274;7.128;2022-10-16T03:07:36;2.00;;;1.70;;
12151;SDS011;6139;51.274;7.128;2022-10-16T03:08:38;3.88;;;1.60;;
12151;SDS011;6139;51.274;7.128;2022-10-16T03:09:39;3.58;;;1.60;;
12151;SDS011;6139;51.274;7.128;2022-10-16T03:10:41;5.30;;;1.58;;
12151;SDS011;6139;51.274;7.128;2022-10-16T03:11:42;1.92;;;1.70;;
12151;SDS011;6139;51.274;7.128;2022-10-16T03:12:44;2.05;;;1.70;;
12151;SDS011;6139;51.274;7.128;2022-10-16T03:13:47;4.22;;;1.70;;
12151;SDS011;6139;51.274;7.128;2022-10-16T03:14:49;3.42;;;2.05;;
12151;SDS011;6139;51.274;7.128;2022-10-16T03:15:50;3.03;;;1.60;;
12151;SDS011;6139;51.274;7.128;2022-10-16T03:16:52;2.88;;;1.50;;
12151;SDS011;6139;51.274;7.128;2022-10-16T03:17:53;2.70;;;1.70;;
12151;SDS011;6139;51.274;7.128;2022-10-16T03:18:55;2.92;;;1.45;;
12151;SDS011;6139;51.274;7.128;2022-10-16T03:19:56;2.17;;;1.70;;
12151;SDS011;6139;51.274;7.128;2022-10-16T03:20:58;2.58;;;1.55;;
12151;SDS011;6139;51.274;7.128;2022-10-16T03:21:59;2.17;;;1.50;;
12151;SDS011;6139;51.274;7.128;2022-10-16T03:23:01;1.95;;;1.75;;
12151;SDS011;6139;51.274;7.128;2022-10-16T03:24:03;3.30;;;1.58;;
12151;SDS011;6139;51.274;7.128;2022-10-16T03:25:06;1.50;;;1.40;;
12151;SDS011;6139;51.274;7.128;2022-10-16T03:26:08;3.50;;;1.88;;
12151;SDS011;6139;51.274;7.128;2022-10-16T03:27:10;2.90;;;1.70;;
12151;SDS011;6139;51.274;7.128;2022-10-16T03:28:11;1.98;;;1.75;;
12151;SDS011;6139;51.274;7.128;2022-10-16T03:29:14;2.65;;;1.55;;
12151;SDS011;6139;51.274;7.128;2022-10-16T03:30:15;1.80;;;1.70;;
12151;SDS011;6139;51.274;7.128;2022-10-16T03:31:17;1.88;;;1.60;;
12151;SDS011;6139;51.274;7.128;2022-10-16T03:32:19;4.40;;;1.70;;
12151;SDS011;6139;51.274;7.128;2022-10-16T03:33:21;2.40;;;1.75;;
12151;SDS011;6139;51.274;7.128;2022-10-16T03:34:23;1.65;;;1.55;;
12151;SDS011;6139;51.274;7.128;2022-10-16T03:35:25;1.60;;;1.42;;
12151;SDS011;6139;51.274;7.128;2022-10-16T03:36:26;1.65;;;1.42;;
12151;SDS011;6139;51.274;7.128;2022-10-16T03:37:28;2.65;;;1.40;;
12151;SDS011;6139;51.274;7.128;2022-10-16T03:38:29;1.77;;;1.60;;
12151;SDS011;6139;51.274;7.128;2022-10-16T03:39:31;1.50;;;1.40;;
12151;SDS011;6139;51.274;7.128;2022-10-16T03:40:32;3.08;;;1.70;;
12151;SDS011;6139;51.274;7.128;2022-10-16T03:41:35;1.80;;;1.70;;
12151;SDS011;6139;51.274;7.128;2022-10-16T03:42:36;2.35;;;1.60;;
12151;SDS011;6139;51.274;7.128;2022-10-16T03:43:38;4.68;;;1.67;;
12151;SDS011;6139;51.274;7.128;2022-10-16T03:44:40;2.35;;;1.48;;
12151;SDS011;6139;51.274;7.128;2022-10-16T03:45:42;2.72;;;1.55;;
12151;SDS011;6139;51.274;7.128;2022-10-16T03:46:43;1.52;;;1.42;;
12151;SDS011;6139;51.274;7.128;2022-10-16T03:47:45;2.85;;;1.70;;
12151;SDS011;6139;51.274;7.128;2022-10-16T03:48:47;1.70;;;1.60;;
12151;SDS011;6139;51.274;7.128;2022-10-16T03:49:50;1.83;;;1.55;;
12151;SDS011;6139;51.274;7.128;2022-10-16T03:50:51;2.25;;;1.40;;
12151;SDS011;6139;51.274;7.128;2022-10-16T03:51:53;5.28;;;1.88;;
12151;SDS011;6139;51.274;7.128;2022-10-16T03:52:54;3.83;;;1.67;;
12151;SDS011;6139;51.274;7.128;2022-10-16T03:53:56;2.08;;;1.45;;
12151;SDS011;6139;51.274;7.128;2022-10-16T03:54:57;2.25;;;2.05;;
12151;SDS011;6139;51.274;7.128;2022-10-16T03:55:59;2.55;;;1.50;;
12151;SDS011;6139;51.274;7.128;2022-10-16T03:57:00;2.22;;;1.75;;
12151;SDS011;6139;51.274;7.128;2022-10-16T03:58:02;1.63;;;1.52;;
12151;SDS011;6139;51.274;7.128;2022-10-16T03:59:03;2.97;;;1.50;;
12151;SDS011;6139;51.274;7.128;2022-10-16T04:00:08;1.83;;;1.73;;
12151;SDS011;6139;51.274;7.128;2022-10-16T04:01:13;1.55;;;1.30;;
12151;SDS011;6139;51.274;7.128;2022-10-16T04:02:15;2.55;;;1.33;;
12151;SDS011;6139;51.274;7.128;2022-10-16T04:03:16;1.50;;;1.40;;
12151;SDS011;6139;51.274;7.128;2022-10-16T04:04:19;1.63;;;1.50;;
12151;SDS011;6139;51.274;7.128;2022-10-16T04:05:20;2.70;;;1.42;;
12151;SDS011;6139;51.274;7.128;2022-10-16T04:06:22;2.50;;;1.50;;
12151;SDS011;6139;51.274;7.128;2022-10-16T04:07:23;1.70;;;1.55;;
12151;SDS011;6139;51.274;7.128;2022-10-16T04:08:25;2.65;;;1.40;;
12151;SDS011;6139;51.274;7.128;2022-10-16T04:09:26;2.17;;;1.38;;
12151;SDS011;6139;51.274;7.128;2022-10-16T04:10:28;1.65;;;1.52;;
12151;SDS011;6139;51.274;7.128;2022-10-16T04:11:29;1.80;;;1.70;;
12151;SDS011;6139;51.274;7.128;2022-10-16T04:12:32;3.15;;;1.50;;
12151;SDS011;6139;51.274;7.128;2022-10-16T04:13:33;1.92;;;1.40;;
12151;SDS011;6139;51.274;7.128;2022-10-16T04:14:35;1.50;;;1.40;;
12151;SDS011;6139;51.274;7.128;2022-10-16T04:15:37;1.45;;;1.30;;
12151;SDS011;6139;51.274;7.128;2022-10-16T04:16:39;1.50;;;1.40;;
12151;SDS011;6139;51.274;7.128;2022-10-16T04:17:40;2.30;;;1.52;;
12151;SDS011;6139;51.274;7.128;2022-10-16T04:18:43;1.60;;;1.50;;
12151;SDS011;6139;51.274;7.128;2022-10-16T04:19:44;2.58;;;1.60;;
12151;SDS011;6139;51.274;7.128;2022-10-16T04:20:46;1.75;;;1.65;;
12151;SDS011;6139;51.274;7.128;2022-10-16T04:21:47;3.28;;;1.80;;
12151;SDS011;6139;51.274;7.128;2022-10-16T04:22:49;1.60;;;1.50;;
12151;SDS011;6139;51.274;7.128;2022-10-16T04:23:50;1.70;;;1.50;;
12151;SDS011;6139;51.274;7.128;2022-10-16T04:24:52;2.92;;;1.50;;
12151;SDS011;6139;51.274;7.128;2022-10-16T04:25:53;1.50;;;1.40;;
12151;SDS011;6139;51.274;7.128;2022-10-16T04:26:55;3.35;;;1.60;;
12151;SDS011;6139;51.274;7.128;2022-10-16T04:27:56;4.60;;;1.63;;
12151;SDS011;6139;51.274;7.128;2022-10-16T04:28:58;3.33;;;1.63;;
12151;SDS011;6139;51.274;7.128;2022-10-16T04:30:00;1.60;;;1.45;;
12151;SDS011;6139;51.274;7.128;2022-10-16T04:31:04;2.97;;;1.80;;
12151;SDS011;6139;51.274;7.128;2022-10-16T04:32:07;3.05;;;1.42;;
12151;SDS011;6139;51.274;7.128;2022-10-16T04:33:09;2.25;;;1.33;;
12151;SDS011;6139;51.274;7.128;2022-10-16T04:34:10;1.58;;;1.48;;
12151;SDS011;6139;51.274;7.128;2022-10-16T04:35:12;1.50;;;1.40;;
12151;SDS011;6139;51.274;7.128;2022-10-16T04:36:14;3.15;;;1.50;;
12151;SDS011;6139;51.274;7.128;2022-10-16T04:37:16;2.80;;;1.52;;
12151;SDS011;6139;51.274;7.128;2022-10-16T04:38:17;5.40;;;1.50;;
12151;SDS011;6139;51.274;7.128;2022-10-16T04:39:19;1.58;;;1.48;;
12151;SDS011;6139;51.274;7.128;2022-10-16T04:40:20;2.22;;;1.48;;
12151;SDS011;6139;51.274;7.128;2022-10-16T04:41:22;2.28;;;1.50;;
12151;SDS011;6139;51.274;7.128;2022-10-16T04:42:23;3.25;;;1.45;;
12151;SDS011;6139;51.274;7.128;2022-10-16T04:43:25;3.00;;;1.50;;
12151;SDS011;6139;51.274;7.128;2022-10-16T04:44:27;2.17;;;1.65;;
12151;SDS011;6139;51.274;7.128;2022-10-16T04:45:29;2.42;;;1.70;;
12151;SDS011;6139;51.274;7.128;2022-10-16T04:46:31;1.83;;;1.63;;
12151;SDS011;6139;51.274;7.128;2022-10-16T04:47:33;1.65;;;1.48;;
12151;SDS011;6139;51.274;7.128;2022-10-16T04:48:34;1.63;;;1.52;;
12151;SDS011;6139;51.274;7.128;2022-10-16T04:49:36;1.52;;;1.42;;
12151;SDS011;6139;51.274;7.128;2022-10-16T04:50:37;1.83;;;1.60;;
12151;SDS011;6139;51.274;7.128;2022-10-16T04:51:39;1.48;;;1.38;;
12151;SDS011;6139;51.274;7.128;2022-10-16T04:52:41;1.60;;;1.50;;
12151;SDS011;6139;51.274;7.128;2022-10-16T04:53:43;2.40;;;1.65;;
12151;SDS011;6139;51.274;7.128;2022-10-16T04:54:44;2.15;;;1.70;;
12151;SDS011;6139;51.274;7.128;2022-10-16T04:55:46;1.65;;;1.48;;
12151;SDS011;6139;51.274;7.128;2022-10-16T04:56:47;1.90;;;1.38;;
12151;SDS011;6139;51.274;7.128;2022-10-16T04:57:51;2.65;;;1.55;;
12151;SDS011;6139;51.274;7.128;2022-10-16T04:58:52;2.38;;;1.58;;
12151;SDS011;6139;51.274;7.128;2022-10-16T04:59:54;1.88;;;1.60;;
12151;SDS011;6139;51.274;7.128;2022-10-16T05:00:56;3.70;;;1.98;;
12151;SDS011;6139;51.274;7.128;2022-10-16T05:01:59;2.42;;;1.80;;
12151;SDS011;6139;51.274;7.128;2022-10-16T05:03:01;3.10;;;1.42;;
12151;SDS011;6139;51.274;7.128;2022-10-16T05:04:06;2.55;;;1.52;;
12151;SDS011;6139;51.274;7.128;2022-10-16T05:05:08;1.95;;;1.80;;
12151;SDS011;6139;51.274;7.128;2022-10-16T05:06:10;2.42;;;1.60;;
12151;SDS011;6139;51.274;7.128;2022-10-16T05:07:11;2.00;;;1.80;;
12151;SDS011;6139;51.274;7.128;2022-10-16T05:08:14;3.53;;;2.15;;
12151;SDS011;6139;51.274;7.128;2022-10-16T05:09:15;2.00;;;1.90;;
12151;SDS011;6139;51.274;7.128;2022-10-16T05:10:17;2.13;;;1.77;;
12151;SDS011;6139;51.274;7.128;2022-10-16T05:11:19;2.00;;;1.80;;
12151;SDS011;6139;51.274;7.128;2022-10-16T05:12:21;1.83;;;1.60;;
12151;SDS011;6139;51.274;7.128;2022-10-16T05:13:22;1.75;;;1.65;;
12151;SDS011;6139;51.274;7.128;2022-10-16T05:14:24;2.83;;;1.70;;
12151;SDS011;6139;51.274;7.128;2022-10-16T05:15:25;2.85;;;2.05;;
12151;SDS011;6139;51.274;7.128;2022-10-16T05:16:27;2.00;;;1.90;;
12151;SDS011;6139;51.274;7.128;2022-10-16T05:17:31;2.03;;;1.65;;
12151;SDS011;6139;51.274;7.128;2022-10-16T05:18:33;2.38;;;1.60;;
12151;SDS011;6139;51.274;7.128;2022-10-16T05:19:34;3.03;;;1.70;;
12151;SDS011;6139;51.274;7.128;2022-10-16T05:20:37;3.17;;;1.95;;
12151;SDS011;6139;51.274;7.128;2022-10-16T05:21:38;3.08;;;2.25;;
12151;SDS011;6139;51.274;7.128;2022-10-16T05:22:40;4.53;;;1.70;;
12151;SDS011;6139;51.274;7.128;2022-10-16T05:23:41;2.70;;;1.70;;
12151;SDS011;6139;51.274;7.128;2022-10-16T05:24:43;2.20;;;1.90;;
12151;SDS011;6139;51.274;7.128;2022-10-16T05:25:51;2.72;;;2.30;;
12151;SDS011;6139;51.274;7.128;2022-10-16T05:26:55;2.97;;;1.83;;
12151;SDS011;6139;51.274;7.128;2022-10-16T05:27:56;1.70;;;1.60;;
12151;SDS011;6139;51.274;7.128;2022-10-16T05:28:58;1.83;;;1.70;;
12151;SDS011;6139;51.274;7.128;2022-10-16T05:29:59;2.00;;;1.80;;
12151;SDS011;6139;51.274;7.128;2022-10-16T05:31:03;2.50;;;2.15;;
12151;SDS011;6139;51.274;7.128;2022-10-16T05:32:05;2.03;;;1.92;;
12151;SDS011;6139;51.274;7.128;2022-10-16T05:33:08;2.00;;;1.80;;
12151;SDS011;6139;51.274;7.128;2022-10-16T05:34:09;2.15;;;1.95;;
12151;SDS011;6139;51.274;7.128;2022-10-16T05:35:12;3.38;;;2.10;;
12151;SDS011;6139;51.274;7.128;2022-10-16T05:36:13;2.80;;;2.05;;
12151;SDS011;6139;51.274;7.128;2022-10-16T05:37:15;2.22;;;1.88;;
12151;SDS011;6139;51.274;7.128;2022-10-16T05:38:16;2.58;;;1.70;;
12151;SDS011;6139;51.274;7.128;2022-10-16T05:39:18;2.15;;;1.70;;
12151;SDS011;6139;51.274;7.128;2022-10-16T05:40:20;2.70;;;1.80;;
12151;SDS011;6139;51.274;7.128;2022-10-16T05:41:22;3.10;;;1.55;;
12151;SDS011;6139;51.274;7.128;2022-10-16T05:42:25;2.83;;;1.90;;
12151;SDS011;6139;51.274;7.128;2022-10-16T05:43:28;1.92;;;1.83;;
12151;SDS011;6139;51.274;7.128;2022-10-16T05:44:29;2.30;;;2.00;;
12151;SDS011;6139;51.274;7.128;2022-10-16T05:45:31;2.00;;;1.90;;
12151;SDS011;6139;51.274;7.128;2022-10-16T05:46:32;2.15;;;1.95;;
12151;SDS011;6139;51.274;7.128;2022-10-16T05:47:34;2.67;;;1.92;;
12151;SDS011;6139;51.274;7.128;2022-10-16T05:48:37;4.63;;;1.65;;
12151;SDS011;6139;51.274;7.128;2022-10-16T05:49:39;3.55;;;2.00;;
12151;SDS011;6139;51.274;7.128;2022-10-16T05:50:40;3.47;;;1.88;;
12151;SDS011;6139;51.274;7.128;2022-10-16T05:51:42;2.30;;;2.10;;
12151;SDS011;6139;51.274;7.128;2022-10-16T05:52:44;2.30;;;2.10;;
12151;SDS011;6139;51.274;7.128;2022-10-16T05:53:45;2.50;;;1.85;;
12151;SDS011;6139;51.274;7.128;2022-10-16T05:54:47;2.20;;;2.00;;
12151;SDS011;6139;51.274;7.128;2022-10-16T05:55:51;2.95;;;1.88;;
12151;SDS011;6139;51.274;7.128;2022-10-16T05:56:53;2.00;;;1.85;;
12151;SDS011;6139;51.274;7.128;2022-10-16T05:57:54;2.92;;;1.88;;
12151;SDS011;6139;51.274;7.128;2022-10-16T05:58:57;2.05;;;1.95;;
12151;SDS011;6139;51.274;7.128;2022-10-16T05:59:58;2.47;;;2.05;;
12151;SDS011;6139;51.274;7.128;2022-10-16T06:01:00;2.92;;;1.70;;
12151;SDS011;6139;51.274;7.128;2022-10-16T06:02:03;4.05;;;2.00;;
12151;SDS011;6139;51.274;7.128;2022-10-16T06:03:05;2.08;;;1.88;;
12151;SDS011;6139;51.274;7.128;2022-10-16T06:04:09;2.00;;;1.83;;
12151;SDS011;6139;51.274;7.128;2022-10-16T06:05:11;1.95;;;1.73;;
12151;SDS011;6139;51.274;7.128;2022-10-16T06:06:13;2.33;;;2.13;;
12151;SDS011;6139;51.274;7.128;2022-10-16T06:07:16;5.85;;;2.17;;
12151;SDS011;6139;51.274;7.128;2022-10-16T06:08:17;3.15;;;2.20;;
12151;SDS011;6139;51.274;7.128;2022-10-16T06:09:20;2.47;;;1.90;;
12151;SDS011;6139;51.274;7.128;2022-10-16T06:10:21;4.60;;;1.95;;
12151;SDS011;6139;51.274;7.128;2022-10-16T06:11:24;2.20;;;2.00;;
12151;SDS011;6139;51.274;7.128;2022-10-16T06:12:26;2.50;;;1.85;;
12151;SDS011;6139;51.274;7.128;2022-10-16T06:13:28;2.15;;;2.03;;
12151;SDS011;6139;51.274;7.128;2022-10-16T06:14:29;2.88;;;2.47;;
12151;SDS011;6139;51.274;7.128;2022-10-16T06:15:31;2.08;;;1.90;;
12151;SDS011;6139;51.274;7.128;2022-10-16T06:16:32;2.35;;;1.98;;
12151;SDS011;6139;51.274;7.128;2022-10-16T06:17:35;2.72;;;2.30;;
12151;SDS011;6139;51.274;7.128;2022-10-16T06:18:36;2.20;;;2.00;;
12151;SDS011;6139;51.274;7.128;2022-10-16T06:19:40;2.25;;;2.00;;
12151;SDS011;6139;51.274;7.128;2022-10-16T06:20:41;2.33;;;2.13;;
12151;SDS011;6139;51.274;7.128;2022-10-16T06:21:43;2.03;;;1.92;;
12151;SDS011;6139;51.274;7.128;2022-10-16T06:22:44;3.42;;;2.00;;
12151;SDS011;6139;51.274;7.128;2022-10-16T06:23:47;2.55;;;1.88;;
12151;SDS011;6139;51.274;7.128;2022-10-16T06:24:48;4.75;;;2.38;;
12151;SDS011;6139;51.274;7.128;2022-10-16T06:25:50;2.60;;;2.20;;